Time;durP1;ratioP1;P1;durP2;ratioP2;P2;SDS_P1;SDS_P2;PMS_P1;PMS_P2;Temp;Humidity;BMP_temperature;BMP_pressure;BME280_temperature;BME280_humidity;BME280_pressure;Samples;Min_cycle;Max_cycle;Signal;HPM_P1;HPM_P2
2021/12/02 00:01:13;;;;;;;2.42;2.05;;;;;;;6.22;76.27;94434.16;1664083;86;21031;-81
2021/12/02 00:03:39;;;;;;;2.40;1.50;;;;;;;6.21;76.17;94435.16;1663212;86;20995;-81
2021/12/02 00:06:09;;;;;;;2.25;1.52;;;;;;;6.21;75.88;94431.79;1676610;85;21011;-80
2021/12/02 00:08:35;;;;;;;1.82;1.62;;;;;;;6.21;75.86;94438.23;1714413;83;21010;-80
2021/12/02 00:11:01;;;;;;;4.55;2.70;;;;;;;6.23;75.81;94431.88;1690368;84;21079;-80
2021/12/02 00:13:29;;;;;;;2.40;1.75;;;;;;;6.25;75.86;94430.39;1690221;85;20942;-80
2021/12/02 00:15:58;;;;;;;2.62;2.10;;;;;;;6.26;75.69;94424.23;1690291;84;20992;-80
2021/12/02 00:21:09;;;;;;;1.77;1.45;;;;;;;6.26;75.85;94429.39;1690207;85;20977;-80
2021/12/02 00:23:38;;;;;;;2.65;1.77;;;;;;;6.29;75.47;94423.33;1690412;85;20985;-80
2021/12/02 00:26:15;;;;;;;2.15;1.52;;;;;;;6.31;75.47;94423.91;1690548;85;21056;-80
2021/12/02 00:28:41;;;;;;;2.75;1.47;;;;;;;6.32;75.41;94429.86;1682631;85;21064;-81
2021/12/02 00:31:13;;;;;;;2.37;2.12;;;;;;;6.30;75.57;94435.22;1690426;85;21054;-81
2021/12/02 00:33:39;;;;;;;6.15;3.17;;;;;;;6.30;75.63;94437.80;1682833;85;21006;-81
2021/12/02 00:36:05;;;;;;;2.12;1.42;;;;;;;6.29;75.67;94439.30;1690385;85;21105;-81
2021/12/02 00:38:30;;;;;;;2.02;1.62;;;;;;;6.27;75.52;94430.97;1688585;84;20970;-80
2021/12/02 00:40:57;;;;;;;2.02;1.52;;;;;;;6.28;75.43;94417.08;1732348;83;20971;-81
2021/12/02 00:43:22;;;;;;;2.10;1.60;;;;;;;6.30;75.22;94402.19;1721980;83;21048;-81
2021/12/02 00:45:48;;;;;;;1.67;1.47;;;;;;;6.33;75.48;94413.38;1717495;83;20960;-81
2021/12/02 00:48:14;;;;;;;1.47;1.12;;;;;;;6.37;75.17;94418.45;1722739;83;21001;-81
2021/12/02 00:50:45;;;;;;;1.35;1.17;;;;;;;6.41;74.98;94417.55;1721293;83;21005;-81
2021/12/02 00:53:11;;;;;;;1.82;1.52;;;;;;;6.42;74.94;94419.92;1698310;84;21449;-81
2021/12/02 00:55:39;;;;;;;2.35;1.27;;;;;;;6.45;74.79;94416.92;1690305;84;20946;-81
2021/12/02 00:58:05;;;;;;;4.00;2.45;;;;;;;6.45;74.51;94410.48;1707224;83;21469;-81
2021/12/02 01:00:31;;;;;;;2.27;1.77;;;;;;;6.47;74.89;94423.17;1698328;83;20986;-81
2021/12/02 01:02:59;;;;;;;1.50;1.30;;;;;;;6.50;74.74;94419.68;1722154;83;20986;-81
2021/12/02 01:05:26;;;;;;;2.40;1.85;;;;;;;6.53;74.75;94421.87;1719561;83;21065;-81
2021/12/02 01:07:52;;;;;;;1.75;1.45;;;;;;;6.55;74.76;94410.84;1717074;83;20995;-81
2021/12/02 01:10:21;;;;;;;1.82;1.32;;;;;;;6.56;74.66;94412.93;1717653;82;21360;-81
2021/12/02 01:12:49;;;;;;;1.32;1.07;;;;;;;6.56;74.85;94410.34;1694412;84;20984;-81
2021/12/02 01:15:15;;;;;;;40.83;21.25;;;;;;;6.56;74.59;94415.51;1717558;83;21014;-81
2021/12/02 01:17:40;;;;;;;9.25;5.10;;;;;;;6.58;74.62;94413.52;1717550;83;21059;-81
2021/12/02 01:20:07;;;;;;;2.37;1.70;;;;;;;6.38;74.68;94374.89;1722404;83;20966;-81
2021/12/02 01:22:35;;;;;;;1.60;1.50;;;;;;;6.60;74.48;94416.67;1723091;83;21040;-81
2021/12/02 01:25:01;;;;;;;2.15;1.85;;;;;;;6.60;74.70;94416.67;1717726;83;21025;-81
2021/12/02 01:27:27;;;;;;;2.08;1.20;;;;;;;6.59;74.92;94419.75;1721878;83;20972;-81
2021/12/02 01:29:53;;;;;;;2.85;1.40;;;;;;;6.62;74.68;94415.97;1722379;83;21361;-81
2021/12/02 01:32:18;;;;;;;2.42;1.40;;;;;;;6.62;74.63;94397.91;1717205;83;20983;-81
2021/12/02 01:34:46;;;;;;;1.52;1.37;;;;;;;6.63;74.24;94404.65;1713649;83;20973;-81
2021/12/02 01:37:12;;;;;;;1.60;1.50;;;;;;;6.65;74.36;94408.31;1722575;83;20988;-81
2021/12/02 01:39:38;;;;;;;2.25;1.40;;;;;;;6.65;74.36;94403.15;1721116;83;20971;-81
2021/12/02 01:42:05;;;;;;;1.57;1.45;;;;;;;6.65;74.50;94410.39;1717378;83;21066;-81
2021/12/02 01:44:30;;;;;;;4.78;2.42;;;;;;;6.67;74.14;94409.72;1705058;83;21425;-81
2021/12/02 01:46:59;;;;;;;2.20;1.50;;;;;;;6.67;73.81;94401.98;1713922;82;21016;-81
2021/12/02 01:49:32;;;;;;;1.57;1.40;;;;;;;6.68;73.82;94405.34;1696476;84;20986;-81
2021/12/02 01:51:57;;;;;;;1.67;1.25;;;;;;;6.67;73.81;94390.83;1719664;83;21020;-81
2021/12/02 01:54:25;;;;;;;1.45;1.32;;;;;;;6.66;73.77;94395.20;1718474;83;20965;-81
2021/12/02 01:57:07;;;;;;;1.27;1.05;;;;;;;6.66;73.80;94393.12;1717693;83;21064;-81
2021/12/02 01:59:36;;;;;;;1.87;1.45;;;;;;;6.67;73.61;94412.77;1712709;83;21036;-81
2021/12/02 02:02:06;;;;;;;1.65;1.50;;;;;;;6.66;74.03;94411.97;1717534;83;21452;-81
2021/12/02 02:04:31;;;;;;;1.87;1.27;;;;;;;6.62;73.91;94414.18;1706789;83;21516;-81
2021/12/02 02:07:01;;;;;;;2.35;1.67;;;;;;;6.59;73.87;94406.06;1675018;84;20992;-81
2021/12/02 02:09:29;;;;;;;1.45;1.32;;;;;;;6.59;74.02;94418.47;1657859;86;20969;-81
2021/12/02 02:11:55;;;;;;;2.08;1.40;;;;;;;6.61;74.09;94419.55;1657902;86;20991;-81
2021/12/02 02:14:23;;;;;;;1.60;1.47;;;;;;;6.61;73.96;94416.47;1657973;86;21073;-81
2021/12/02 02:16:49;;;;;;;1.62;1.52;;;;;;;6.62;73.93;94411.59;1656466;87;21034;-81
2021/12/02 02:19:15;;;;;;;2.92;2.20;;;;;;;6.59;74.01;94422.34;1675649;84;20960;-81
2021/12/02 02:21:41;;;;;;;1.90;1.70;;;;;;;6.55;74.04;94422.45;1665975;85;21439;-81
2021/12/02 02:24:12;;;;;;;2.15;1.70;;;;;;;6.53;74.23;94421.08;1635418;86;21031;-81
2021/12/02 02:26:36;;;;;;;2.02;1.47;;;;;;;6.53;74.20;94424.95;1656147;87;21065;-81
2021/12/02 02:29:07;;;;;;;1.60;1.47;;;;;;;6.53;74.17;94427.03;1656565;87;21473;-81
2021/12/02 02:31:33;;;;;;;1.90;1.55;;;;;;;6.53;74.06;94421.08;1685402;85;21414;-81
2021/12/02 02:33:59;;;;;;;2.65;1.85;;;;;;;6.53;74.27;94427.53;1675006;85;21010;-81
2021/12/02 02:36:32;;;;;;;3.70;1.70;;;;;;;6.51;74.26;94430.81;1657846;86;21069;-81
2021/12/02 02:38:59;;;;;;;2.40;2.20;;;;;;;6.49;74.29;94433.58;1656545;86;21396;-81
2021/12/02 02:41:28;;;;;;;2.00;1.65;;;;;;;6.49;74.18;94440.03;1656357;86;21042;-81
2021/12/02 02:43:57;;;;;;;2.20;1.47;;;;;;;6.52;74.22;94436.27;1674101;85;20999;-81
2021/12/02 02:46:26;;;;;;;1.52;1.42;;;;;;;6.53;74.00;94431.41;1658125;86;21014;-81
2021/12/02 02:48:52;;;;;;;3.95;2.20;;;;;;;6.52;74.06;94433.69;1657621;86;21018;-81
2021/12/02 02:51:18;;;;;;;1.85;1.60;;;;;;;6.48;74.03;94442.31;1656941;86;20988;-81
2021/12/02 02:53:44;;;;;;;1.50;1.30;;;;;;;6.43;73.80;94416.34;1644727;87;21003;-81
2021/12/02 02:56:13;;;;;;;1.67;1.45;;;;;;;6.39;73.70;94426.78;1649742;87;21378;-81
2021/12/02 03:01:32;;;;;;;1.90;1.60;;;;;;;6.38;73.45;94429.06;1633468;87;21521;-81
2021/12/02 03:09:05;;;;;;;1.95;1.75;;;;;;;6.42;73.32;94453.45;1671273;84;21420;-81
2021/12/02 03:11:37;;;;;;;3.52;2.40;;;;;;;6.38;73.39;94445.05;1641396;86;21032;-81
2021/12/02 03:13:55;;;;;;;1.72;1.60;;;;;;;6.35;73.45;94457.85;1705090;84;21033;-81
2021/12/02 03:19:05;;;;;;;2.10;1.80;;;;;;;6.31;73.47;94443.75;1668235;86;21030;-80
2021/12/02 03:21:31;;;;;;;2.10;1.80;;;;;;;6.36;73.34;94453.48;1668750;85;21436;-81
2021/12/02 03:23:59;;;;;;;1.60;1.42;;;;;;;6.35;73.11;94457.85;1669932;86;20982;-81
2021/12/02 03:26:26;;;;;;;2.22;2.02;;;;;;;6.36;72.67;94456.86;1666701;86;21038;-81
2021/12/02 03:28:52;;;;;;;1.80;1.70;;;;;;;6.37;72.71;94456.36;1665408;85;20977;-80
2021/12/02 03:31:18;;;;;;;1.90;1.37;;;;;;;6.36;72.10;94459.93;1666626;86;21124;-80
2021/12/02 03:33:44;;;;;;;1.77;1.60;;;;;;;6.37;72.32;94462.80;1668459;86;21397;-81
2021/12/02 03:36:11;;;;;;;2.42;1.50;;;;;;;6.40;72.36;94471.42;1638095;86;21121;-81
2021/12/02 03:38:36;;;;;;;1.80;1.47;;;;;;;6.39;71.72;94460.31;1641527;86;21326;-81
2021/12/02 03:41:02;;;;;;;2.15;1.70;;;;;;;6.41;72.00;94457.03;1668611;85;21038;-81
2021/12/02 03:43:37;;;;;;;2.27;1.70;;;;;;;6.38;71.91;94470.34;1669764;85;21335;-80
2021/12/02 03:46:04;;;;;;;1.52;1.42;;;;;;;6.37;72.02;94464.89;1668364;86;21032;-80
2021/12/02 03:48:30;;;;;;;1.40;1.10;;;;;;;6.36;72.09;94463.80;1668496;85;21372;-81
2021/12/02 03:50:55;;;;;;;2.10;1.35;;;;;;;6.30;71.85;94467.46;1667770;86;20998;-80
2021/12/02 03:53:21;;;;;;;1.62;1.35;;;;;;;6.26;71.95;94466.78;1667111;86;21033;-80
2021/12/02 03:55:47;;;;;;;1.87;1.40;;;;;;;6.22;72.34;94466.90;1668460;85;21389;-81
2021/12/02 03:58:12;;;;;;;1.80;1.40;;;;;;;6.14;72.45;94464.52;1666715;86;21064;-80
2021/12/02 04:00:39;;;;;;;1.60;1.30;;;;;;;6.09;72.55;94458.68;1666697;86;21006;-80
2021/12/02 04:03:05;;;;;;;1.40;1.30;;;;;;;6.08;72.80;94457.59;1668451;85;21326;-81
2021/12/02 04:05:31;;;;;;;1.32;1.22;;;;;;;6.08;72.67;94449.86;1671212;85;21104;-80
2021/12/02 04:07:56;;;;;;;1.50;1.30;;;;;;;6.10;72.75;94453.82;1689682;84;21052;-81
2021/12/02 04:10:23;;;;;;;1.52;1.40;;;;;;;6.10;72.59;94456.89;1656733;85;21045;-81
2021/12/02 04:12:57;;;;;;;1.95;1.57;;;;;;;6.03;72.48;94442.73;1719662;83;20942;-80
2021/12/02 04:15:24;;;;;;;1.40;1.30;;;;;;;6.08;72.65;94453.73;1718892;83;20984;-81
2021/12/02 04:17:44;;;;;;;1.57;1.40;;;;;;;6.02;72.95;94446.31;1707969;83;21024;-80
2021/12/02 04:20:15;;;;;;;1.00;0.85;;;;;;;5.98;73.14;94448.47;1708703;83;21088;-81
2021/12/02 04:22:41;;;;;;;2.02;1.37;;;;;;;5.98;72.70;94452.84;1708433;83;20992;-80
2021/12/02 04:25:08;;;;;;;2.15;1.75;;;;;;;6.00;72.99;94450.84;1714295;83;21011;-81
2021/12/02 04:27:34;;;;;;;2.12;1.57;;;;;;;6.00;73.10;94448.27;1704068;83;21066;-81
2021/12/02 04:30:00;;;;;;;1.62;1.50;;;;;;;5.98;73.30;94446.39;1685107;84;21084;-80
2021/12/02 04:32:27;;;;;;;1.47;1.10;;;;;;;5.95;73.22;94459.19;1685107;84;21404;-80
2021/12/02 04:34:53;;;;;;;1.72;1.42;;;;;;;5.93;73.15;94458.59;1685371;85;20959;-80
2021/12/02 04:37:18;;;;;;;2.00;1.60;;;;;;;5.94;73.09;94460.67;1685209;84;21002;-81
2021/12/02 04:39:44;;;;;;;2.70;2.20;;;;;;;5.97;73.23;94468.80;1685128;85;20970;-81
2021/12/02 04:42:10;;;;;;;2.15;1.70;;;;;;;5.98;73.12;94468.30;1685432;84;21471;-81
2021/12/02 04:44:35;;;;;;;2.30;2.05;;;;;;;5.97;73.21;94490.71;1659047;85;21018;-81
2021/12/02 04:47:02;;;;;;;2.85;1.60;;;;;;;5.97;72.92;94483.47;1685278;85;21032;-81
2021/12/02 04:49:28;;;;;;;1.50;1.40;;;;;;;5.97;73.03;94482.19;1685321;85;21017;-81
2021/12/02 04:51:53;;;;;;;2.52;1.40;;;;;;;5.97;73.08;94491.20;1684136;84;21064;-80
2021/12/02 04:54:19;;;;;;;2.20;1.75;;;;;;;5.95;72.85;94496.56;1680964;85;21022;-81
2021/12/02 04:56:45;;;;;;;2.35;1.98;;;;;;;5.95;73.07;94496.56;1685316;85;21085;-80
2021/12/02 04:59:11;;;;;;;2.85;1.80;;;;;;;5.93;73.12;94500.34;1697040;84;21084;-80
2021/12/02 05:01:36;;;;;;;1.52;1.42;;;;;;;5.89;73.13;94498.63;1685362;84;20993;-80
2021/12/02 05:04:02;;;;;;;1.95;1.75;;;;;;;5.86;73.19;94500.81;1691855;84;21377;-81
2021/12/02 05:06:28;;;;;;;2.05;1.40;;;;;;;5.80;73.32;94499.80;1679307;84;21035;-80
2021/12/02 05:08:54;;;;;;;1.82;1.50;;;;;;;5.77;73.15;94491.68;1678588;84;21442;-80
2021/12/02 05:11:20;;;;;;;7.45;4.33;;;;;;;5.77;73.07;94507.14;1671015;86;21328;-80
2021/12/02 05:13:45;;;;;;;5.25;3.15;;;;;;;5.78;73.02;94512.09;1670986;86;20978;-80
2021/12/02 05:16:11;;;;;;;3.72;2.67;;;;;;;5.80;73.08;94518.34;1672742;85;21341;-81
2021/12/02 05:18:37;;;;;;;4.80;3.10;;;;;;;5.79;73.04;94517.55;1671212;86;21020;-81
2021/12/02 05:21:03;;;;;;;2.92;2.27;;;;;;;5.78;73.07;94516.46;1665176;86;21073;-80
2021/12/02 05:23:28;;;;;;;3.42;2.33;;;;;;;5.77;73.07;94518.73;1665363;86;21024;-81
2021/12/02 05:25:54;;;;;;;2.70;2.00;;;;;;;5.79;73.21;94511.60;1640042;86;21026;-81
2021/12/02 05:28:20;;;;;;;2.35;1.90;;;;;;;5.82;73.27;94504.75;1668444;86;21010;-80
2021/12/02 05:30:47;;;;;;;2.50;2.30;;;;;;;5.87;73.25;94501.91;1667005;86;20998;-81
2021/12/02 05:33:13;;;;;;;1.92;1.55;;;;;;;5.92;73.20;94494.89;1657704;86;21456;-80
2021/12/02 05:35:39;;;;;;;2.60;2.10;;;;;;;5.95;72.98;94499.64;1669862;85;21026;-80
2021/12/02 05:38:05;;;;;;;3.15;2.50;;;;;;;5.98;72.96;94496.16;1666882;86;21295;-82
2021/12/02 05:40:31;;;;;;;3.00;2.52;;;;;;;6.01;72.61;94494.97;1668407;86;21423;-80
2021/12/02 05:42:56;;;;;;;2.30;1.87;;;;;;;6.01;72.74;94500.91;1669931;84;20978;-80
2021/12/02 05:45:22;;;;;;;1.85;1.50;;;;;;;6.01;72.85;94507.36;1667196;86;20958;-80
2021/12/02 05:47:48;;;;;;;2.08;1.67;;;;;;;6.00;72.76;94514.01;1668661;85;21013;-80
2021/12/02 05:50:14;;;;;;;7.53;5.80;;;;;;;6.01;72.39;94509.94;1668212;86;21051;-80
2021/12/02 05:52:39;;;;;;;3.08;2.70;;;;;;;6.05;72.48;94527.61;1667305;85;21024;-81
2021/12/02 05:55:06;;;;;;;3.25;2.65;;;;;;;6.06;72.34;94522.75;1667872;86;20975;-81
2021/12/02 05:57:32;;;;;;;2.60;2.05;;;;;;;6.06;72.51;94533.06;1670063;86;20967;-80
2021/12/02 05:59:59;;;;;;;3.90;2.47;;;;;;;6.07;72.38;94540.59;1666731;86;21016;-80
2021/12/02 06:02:25;;;;;;;2.27;1.98;;;;;;;6.08;72.30;94548.63;1668286;85;21010;-80
2021/12/02 06:04:52;;;;;;;4.20;3.80;;;;;;;6.09;72.49;94533.45;1666699;86;21063;-81
2021/12/02 06:07:19;;;;;;;3.55;2.83;;;;;;;6.10;72.51;94540.20;1654193;84;21109;-81
2021/12/02 06:09:46;;;;;;;2.58;2.12;;;;;;;6.11;72.45;94540.49;1684739;85;21029;-80
2021/12/02 06:12:12;;;;;;;3.52;1.85;;;;;;;6.14;72.58;94543.16;1685153;85;21419;-80
2021/12/02 06:14:37;;;;;;;2.08;1.57;;;;;;;6.18;72.43;94537.44;1685096;85;21024;-80
2021/12/02 06:17:03;;;;;;;2.37;1.70;;;;;;;6.21;72.13;94533.66;1685108;84;20993;-81
2021/12/02 06:19:29;;;;;;;2.58;1.95;;;;;;;6.23;72.08;94538.91;1685232;85;21316;-80
2021/12/02 06:21:55;;;;;;;3.27;2.10;;;;;;;6.25;72.26;94545.16;1685017;84;21092;-80
2021/12/02 06:24:29;;;;;;;5.65;4.92;;;;;;;6.26;72.38;94548.03;1685238;85;21143;-80
2021/12/02 06:26:49;;;;;;;2.80;2.40;;;;;;;6.07;72.34;94520.47;1684188;85;21468;-81
2021/12/02 06:29:15;;;;;;;2.60;2.00;;;;;;;6.24;72.47;94553.39;1685561;85;21035;-81
2021/12/02 06:31:41;;;;;;;2.10;1.65;;;;;;;6.21;72.48;94548.63;1685265;85;21068;-80
2021/12/02 06:34:07;;;;;;;3.05;2.25;;;;;;;6.20;72.24;94543.68;1684805;84;21003;-80
2021/12/02 06:36:33;;;;;;;2.15;1.70;;;;;;;6.20;72.46;94546.26;1684990;84;21395;-81
2021/12/02 06:38:59;;;;;;;2.50;2.12;;;;;;;6.21;72.39;94543.97;1684978;84;21015;-81
2021/12/02 06:41:25;;;;;;;3.05;2.50;;;;;;;6.21;72.73;94548.63;1685075;85;20979;-81
2021/12/02 06:43:50;;;;;;;2.65;1.87;;;;;;;6.20;72.76;94548.34;1685009;85;21063;-81
2021/12/02 06:46:16;;;;;;;2.42;1.90;;;;;;;6.19;72.63;94545.47;1685261;85;21021;-81
2021/12/02 06:48:42;;;;;;;2.52;2.22;;;;;;;6.17;72.86;94544.84;1685332;85;20974;-81
2021/12/02 06:51:12;;;;;;;4.00;2.90;;;;;;;6.16;73.03;94552.28;1685038;85;21445;-80
2021/12/02 06:53:36;;;;;;;3.83;2.87;;;;;;;6.14;72.93;94547.03;1692524;84;21008;-80
2021/12/02 06:56:02;;;;;;;6.67;5.50;;;;;;;6.12;73.00;94551.59;1685151;85;21364;-81
2021/12/02 06:58:28;;;;;;;7.37;5.58;;;;;;;6.12;72.87;94556.76;1685156;84;20987;-81
2021/12/02 07:00:53;;;;;;;9.13;6.28;;;;;;;6.15;72.90;94550.70;1685814;84;21470;-81
2021/12/02 07:03:19;;;;;;;5.17;3.80;;;;;;;6.18;72.88;94555.95;1724394;82;21090;-80
2021/12/02 07:05:45;;;;;;;6.50;4.72;;;;;;;6.19;72.90;94556.28;1719313;83;21052;-80
2021/12/02 07:08:10;;;;;;;2.58;2.22;;;;;;;6.21;72.85;94562.03;1675887;83;21015;-81
2021/12/02 07:10:36;;;;;;;3.47;2.55;;;;;;;6.03;72.45;94541.20;1676138;85;21454;-80
2021/12/02 07:13:03;;;;;;;2.12;1.82;;;;;;;6.24;72.57;94575.81;1685095;85;21031;-81
2021/12/02 07:15:40;;;;;;;3.37;1.70;;;;;;;6.25;72.65;94574.31;1685386;85;21406;-80
2021/12/02 07:17:58;;;;;;;2.08;1.80;;;;;;;6.28;72.51;94578.28;1641380;87;21049;-80
2021/12/02 07:20:30;;;;;;;2.37;1.90;;;;;;;6.30;72.36;94577.58;1658226;86;21007;-81
2021/12/02 07:22:58;;;;;;;3.12;2.50;;;;;;;6.31;72.18;94569.64;1656886;87;21414;-81
2021/12/02 07:25:23;;;;;;;2.77;2.20;;;;;;;6.30;72.19;94584.82;1656338;86;21054;-80
2021/12/02 07:27:49;;;;;;;2.12;1.80;;;;;;;6.30;72.28;94577.58;1667622;85;21452;-81
2021/12/02 07:30:15;;;;;;;1.80;1.27;;;;;;;6.28;72.26;94570.05;1658017;86;21024;-80
2021/12/02 07:32:41;;;;;;;3.45;2.40;;;;;;;6.27;72.09;94576.20;1658049;86;21067;-80
2021/12/02 07:35:13;;;;;;;2.33;1.57;;;;;;;6.26;72.37;94580.27;1656475;87;21058;-81
2021/12/02 07:37:43;;;;;;;;;;;;;;;6.28;72.14;94575.70;1657829;87;21041;-80
2021/12/02 07:40:10;;;;;;;2.10;1.85;;;;;;;6.32;72.15;94583.33;1666927;85;20154;-81
2021/12/02 07:42:36;;;;;;;4.33;2.30;;;;;;;6.33;72.09;94583.63;1667138;85;20982;-81
2021/12/02 07:45:05;;;;;;;4.45;3.65;;;;;;;6.33;72.26;94590.08;1658161;86;20976;-81
2021/12/02 07:47:33;;;;;;;3.67;2.87;;;;;;;6.32;72.32;94590.57;1656653;87;21127;-80
2021/12/02 07:49:58;;;;;;;4.05;2.85;;;;;;;6.32;72.53;94594.94;1656681;86;20958;-80
2021/12/02 07:52:25;;;;;;;2.98;2.27;;;;;;;6.28;72.64;94597.13;1656679;85;21033;-80
2021/12/02 07:54:52;;;;;;;3.45;2.50;;;;;;;6.26;72.64;94597.83;1658091;86;21491;-80
2021/12/02 07:57:18;;;;;;;3.70;2.40;;;;;;;6.28;72.79;94607.45;1656551;87;21016;-81
2021/12/02 07:59:47;;;;;;;3.75;2.25;;;;;;;6.30;72.68;94604.17;1656630;87;21035;-80
2021/12/02 08:02:14;;;;;;;4.22;2.00;;;;;;;6.33;72.85;94608.92;1656415;87;21090;-81
2021/12/02 08:04:40;;;;;;;3.80;2.37;;;;;;;6.35;72.83;94611.34;1658242;86;21026;-81
2021/12/02 08:07:06;;;;;;;3.65;2.08;;;;;;;6.35;72.92;94606.67;1666047;85;21042;-81
2021/12/02 08:09:32;;;;;;;3.62;2.15;;;;;;;6.33;72.75;94613.29;1634407;87;21426;-81
2021/12/02 08:12:00;;;;;;;3.75;2.60;;;;;;;6.33;72.70;94619.73;1694882;83;21391;-80
2021/12/02 08:14:27;;;;;;;3.98;2.83;;;;;;;6.32;72.76;94624.11;1666713;86;21409;-80
2021/12/02 08:16:53;;;;;;;4.95;2.90;;;;;;;6.35;72.72;94629.89;1665558;85;21089;-81
2021/12/02 08:19:20;;;;;;;4.70;3.40;;;;;;;6.37;72.71;94633.06;1667953;86;21091;-80
2021/12/02 08:21:46;;;;;;;5.20;3.60;;;;;;;6.39;72.86;94637.52;1667025;86;20985;-81
2021/12/02 08:24:12;;;;;;;7.22;3.33;;;;;;;6.39;72.86;94640.89;1668332;86;20962;-81
2021/12/02 08:26:37;;;;;;;3.52;3.05;;;;;;;6.37;73.05;94636.44;1668594;85;21472;-80
2021/12/02 08:29:04;;;;;;;5.95;3.70;;;;;;;6.37;73.06;94637.72;1665950;86;21021;-81
2021/12/02 08:31:30;;;;;;;7.30;5.17;;;;;;;6.37;73.20;94646.75;1669515;86;20983;-81
2021/12/02 08:33:56;;;;;;;4.90;3.50;;;;;;;6.36;73.12;94634.84;1668980;86;21412;-81
2021/12/02 08:36:30;;;;;;;7.85;4.33;;;;;;;6.36;72.61;94642.59;1667895;85;21152;-80
2021/12/02 08:38:51;;;;;;;4.97;3.42;;;;;;;6.39;72.79;94641.39;1665169;86;21021;-81
2021/12/02 08:41:19;;;;;;;4.05;2.60;;;;;;;6.45;72.86;94636.72;1667456;86;21041;-80
2021/12/02 08:43:47;;;;;;;3.37;2.52;;;;;;;6.51;72.93;94641.11;1699603;84;21025;-80
2021/12/02 08:46:14;;;;;;;2.67;1.90;;;;;;;6.53;71.98;94643.78;1699593;83;21416;-81
2021/12/02 08:48:40;;;;;;;3.35;2.17;;;;;;;6.56;72.37;94652.41;1696053;83;21032;-81
2021/12/02 08:51:07;;;;;;;3.05;2.10;;;;;;;6.57;72.15;94651.41;1670078;86;21071;-81
2021/12/02 08:53:33;;;;;;;2.08;1.87;;;;;;;6.59;72.15;94663.62;1668215;86;21107;-81
2021/12/02 08:55:58;;;;;;;1.90;1.75;;;;;;;6.61;72.43;94662.92;1665850;86;21112;-81
2021/12/02 08:58:24;;;;;;;2.65;2.20;;;;;;;6.62;72.60;94665.80;1667628;86;20943;-81
2021/12/02 09:00:50;;;;;;;3.15;2.05;;;;;;;6.67;72.50;94670.38;1665733;86;22077;-81
2021/12/02 09:03:16;;;;;;;3.17;2.27;;;;;;;6.71;72.04;94669.48;1684895;85;21059;-80
2021/12/02 09:05:43;;;;;;;3.12;2.37;;;;;;;6.73;71.72;94666.20;1673254;84;21098;-81
2021/12/02 09:08:09;;;;;;;3.42;2.40;;;;;;;6.74;71.89;94675.53;1685263;84;21505;-81
2021/12/02 09:10:35;;;;;;;4.22;2.33;;;;;;;6.73;72.48;94672.16;1681641;85;20995;-81
2021/12/02 09:13:07;;;;;;;5.20;2.47;;;;;;;6.66;73.59;94663.60;1683568;85;20983;-81
2021/12/02 09:15:28;;;;;;;2.90;2.25;;;;;;;6.56;74.38;94673.05;1668922;86;21406;-81
2021/12/02 09:17:54;;;;;;;3.65;2.58;;;;;;;6.47;75.00;94683.75;1667871;86;21043;-80
2021/12/02 09:20:20;;;;;;;2.92;2.60;;;;;;;6.38;75.19;94679.30;1666988;86;21306;-80
2021/12/02 09:22:45;;;;;;;3.70;3.33;;;;;;;6.32;75.52;94684.72;1667253;85;21012;-80
2021/12/02 09:25:13;;;;;;;5.58;3.40;;;;;;;6.28;75.83;94685.32;1666876;86;21017;-81
2021/12/02 09:27:39;;;;;;;6.15;4.87;;;;;;;6.22;75.99;94683.04;1667053;86;21986;-81
2021/12/02 09:30:06;;;;;;;5.55;4.60;;;;;;;6.23;76.13;94685.92;1665612;86;21013;-80
2021/12/02 09:32:33;;;;;;;5.40;4.22;;;;;;;6.19;76.00;94675.70;1666610;86;21508;-81
2021/12/02 09:34:59;;;;;;;4.67;3.40;;;;;;;6.18;75.95;94679.73;1668159;86;21012;-81
2021/12/02 09:37:25;;;;;;;4.33;3.00;;;;;;;6.21;76.05;94676.79;1666718;86;21091;-81
2021/12/02 09:39:51;;;;;;;5.00;3.83;;;;;;;6.24;76.15;94688.80;1666571;85;21388;-81
2021/12/02 09:42:17;;;;;;;4.00;3.55;;;;;;;6.26;75.79;94685.52;1669929;86;20987;-80
2021/12/02 09:44:48;;;;;;;11.30;7.45;;;;;;;6.28;75.79;94681.45;1665160;86;21077;-81
2021/12/02 09:47:10;;;;;;;7.70;4.65;;;;;;;6.28;75.66;94694.34;1665133;86;20995;-80
2021/12/02 09:49:36;;;;;;;12.03;6.40;;;;;;;6.29;75.11;94686.91;1665313;86;21020;-80
2021/12/02 09:52:03;;;;;;;4.40;2.50;;;;;;;6.30;74.95;94688.00;1659463;86;21388;-82
2021/12/02 09:54:40;;;;;;;6.28;3.12;;;;;;;6.38;74.61;94687.53;1665287;86;21369;-81
2021/12/02 09:57:04;;;;;;;2.93;2.47;;;;;;;6.42;74.56;94690.00;1656478;86;21563;-81
2021/12/02 09:59:45;;;;;;;3.83;2.70;;;;;;;6.47;74.66;94694.86;1673228;85;20997;-81
2021/12/02 10:02:12;;;;;;;2.80;2.40;;;;;;;6.50;74.66;94689.30;1683556;84;20996;-81
2021/12/02 10:04:39;;;;;;;3.00;2.40;;;;;;;6.53;74.57;94692.80;1670546;86;20992;-81
2021/12/02 10:07:14;;;;;;;3.92;2.85;;;;;;;6.55;74.34;94702.43;1671107;86;21451;-80
2021/12/02 10:09:42;;;;;;;2.92;1.60;;;;;;;6.59;73.88;94704.91;1679207;85;21332;-81
2021/12/02 10:12:15;;;;;;;2.90;2.12;;;;;;;6.62;73.86;94703.22;1675187;84;21023;-80
2021/12/02 10:14:38;;;;;;;2.30;1.50;;;;;;;6.63;73.47;94703.52;1674664;86;21053;-81
2021/12/02 10:17:16;;;;;;;3.02;2.37;;;;;;;6.67;73.38;94700.53;1686761;85;21071;-80
2021/12/02 10:23:13;;;;;;;3.08;2.33;;;;;;;6.69;73.51;94695.98;1695680;83;21135;-80
2021/12/02 10:25:37;;;;;;;2.45;1.90;;;;;;;6.67;73.23;94688.45;1677515;85;21020;-81
2021/12/02 10:28:06;;;;;;;4.47;2.27;;;;;;;6.70;73.23;94693.70;1671623;85;21015;-81
2021/12/02 10:30:33;;;;;;;2.85;1.92;;;;;;;6.74;73.19;94688.44;1661676;86;21514;-81
2021/12/02 10:32:58;;;;;;;4.03;1.95;;;;;;;6.77;73.15;94696.57;1659980;86;21041;-81
2021/12/02 10:35:43;;;;;;;4.67;2.00;;;;;;;6.79;72.73;94693.29;1671666;86;21024;-80
2021/12/02 10:38:41;;;;;;;4.58;2.92;;;;;;;6.80;72.80;94697.45;1673165;86;21081;-81
2021/12/02 10:41:16;;;;;;;6.20;3.95;;;;;;;6.83;73.16;94694.97;1672707;86;21452;-81
2021/12/02 10:44:29;;;;;;;6.40;4.10;;;;;;;6.87;72.95;94684.06;1654572;85;21067;-80
2021/12/02 10:47:00;;;;;;;3.27;2.40;;;;;;;6.89;72.66;94686.45;1673308;85;21068;-80
2021/12/02 10:49:29;;;;;;;4.10;2.37;;;;;;;6.91;72.58;94680.08;1687762;84;21048;-81
2021/12/02 10:52:01;;;;;;;3.90;2.12;;;;;;;6.95;72.45;94683.05;1701150;83;21000;-81
2021/12/02 10:54:31;;;;;;;3.58;2.17;;;;;;;6.97;71.66;94680.27;1701243;83;21052;-81
2021/12/02 10:57:00;;;;;;;3.22;2.45;;;;;;;6.96;71.68;94679.97;1695141;83;21011;-80
2021/12/02 10:59:39;;;;;;;4.42;2.27;;;;;;;6.95;71.61;94679.67;1699595;83;21030;-80
2021/12/02 11:02:36;;;;;;;4.60;2.65;;;;;;;6.95;71.58;94674.02;1676560;84;21031;-80
2021/12/02 11:05:19;;;;;;;3.20;2.27;;;;;;;6.91;71.50;94671.55;1646825;86;21050;-80
2021/12/02 11:07:42;;;;;;;4.62;2.85;;;;;;;6.89;71.21;94666.59;1669408;85;21084;-81
2021/12/02 11:10:13;;;;;;;5.58;3.30;;;;;;;6.88;71.46;94661.62;1678321;85;21050;-81
2021/12/02 11:12:41;;;;;;;6.40;3.13;;;;;;;6.87;71.36;94672.95;1671321;86;21410;-81
2021/12/02 11:15:21;;;;;;;5.55;3.37;;;;;;;6.89;71.51;94671.75;1671081;86;21068;-81
2021/12/02 11:17:52;;;;;;;4.80;2.72;;;;;;;6.93;71.39;94672.13;1669694;86;21087;-80
2021/12/02 11:20:25;;;;;;;4.35;2.52;;;;;;;6.97;71.22;94677.69;1667217;86;21432;-80
2021/12/02 11:23:18;;;;;;;2.47;1.85;;;;;;;6.99;71.52;94676.48;1667818;86;21363;-80
2021/12/02 11:26:10;;;;;;;3.98;2.12;;;;;;;7.02;70.98;94680.48;1667198;86;21015;-80
2021/12/02 11:28:41;;;;;;;4.47;2.63;;;;;;;7.02;71.06;94675.31;1671522;86;21473;-81
2021/12/02 11:31:12;;;;;;;3.52;2.45;;;;;;;7.02;71.11;94674.02;1672470;86;20986;-80
2021/12/02 11:33:39;;;;;;;2.37;2.00;;;;;;;7.00;70.94;94674.23;1655025;86;20996;-80
2021/12/02 11:36:07;;;;;;;2.83;1.77;;;;;;;6.98;70.69;94673.61;1672607;86;21010;-80
2021/12/02 11:38:35;;;;;;;1.80;1.70;;;;;;;6.96;70.55;94674.81;1664375;86;21065;-81
2021/12/02 11:41:03;;;;;;;2.62;1.80;;;;;;;6.93;70.54;94677.30;1668369;86;21018;-81
2021/12/02 11:43:35;;;;;;;3.00;2.35;;;;;;;6.92;70.24;94684.75;1667598;86;20971;-81
2021/12/02 11:46:04;;;;;;;5.20;4.28;;;;;;;6.93;70.23;94683.75;1667631;85;21046;-81
2021/12/02 11:48:34;;;;;;;4.47;3.52;;;;;;;6.95;70.12;94680.97;1668401;86;21049;-81
2021/12/02 11:51:04;;;;;;;6.17;3.83;;;;;;;6.98;70.40;94682.65;1665595;86;21013;-81
2021/12/02 11:53:30;;;;;;;4.65;3.83;;;;;;;6.99;70.12;94682.15;1667711;86;20994;-80
2021/12/02 11:56:00;;;;;;;4.05;2.80;;;;;;;6.99;70.21;94679.56;1668056;86;21093;-80
2021/12/02 11:58:26;;;;;;;3.45;2.77;;;;;;;6.99;70.26;94678.27;1667121;86;21061;-80
2021/12/02 12:00:52;;;;;;;4.42;2.90;;;;;;;6.98;69.84;94677.48;1666895;86;20986;-81